METAR Data
IDs: Format: Raw Decoded Include TAF

Data at: 0653 UTC 23 Feb 2019

PAQT 230553Z AUTO 12006KT 10SM CLR M27/M30 A3017 RMK AO2 SLP217 T12671300 11256 21289 58010 TSNO
PAQT 230453Z AUTO 11003KT 10SM CLR M27/M29 A3018 RMK AO2 SLP221 T12671294 TSNO
PAQT 230353Z AUTO 12004KT 10SM CLR M26/M29 A3019 RMK AO2 SLP226 T12561289 TSNO
PAQT 230253Z AUTO 10007KT 10SM CLR M27/M30 A3020 RMK AO2 SLP228 T12721300 58015 TSNO
PAQT 230153Z AUTO 11006KT 10SM CLR M28/M32 A3022 RMK AO2 SLP236 T12831317 TSNO
PAQT 230053Z AUTO 10004KT 10SM CLR M28/M31 A3023 RMK AO2 SLP238 T12831311 TSNO
PAQT 222353Z AUTO 12004KT 10SM CLR M28/M31 A3024 RMK AO2 SLP242 T12831311 11278 21294 58007 TSNO
PAQT 222253Z AUTO 14003KT 10SM CLR M28/M30 A3025 RMK AO2 SLP247 T12781300 TSNO
PAQT 222153Z AUTO 08007KT 10SM CLR M29/M32 A3025 RMK AO2 SLP247 T12891322 TSNO
PAQT 222053Z AUTO 08006KT 10SM CLR M28/M31 A3026 RMK AO2 SLP250 T12831311 58002 TSNO
PAQT 221953Z AUTO 07007KT 10SM CLR M28/M31 A3027 RMK AO2 SLP251 T12831311 TSNO
PAQT 221853Z AUTO 09007KT 10SM CLR M29/M31 A3027 RMK AO2 SLP252 T12891311 TSNO
PAQT 221753Z AUTO 07009KT 10SM CLR M29/M31 A3027 RMK AO2 SLP251 T12891306 11267 21300 58003 TSNO
PAQT 221719Z AUTO 07010KT 10SM SCT005 M29/M32 A3028 RMK AO2 T12891317 TSNO
PAQT 221712Z AUTO 07009KT 10SM BKN005 M29/M32 A3028 RMK AO2 T12941317 TSNO
PAQT 221701Z AUTO 07009KT 10SM SCT006 M29/M32 A3028 RMK AO2 T12941322 TSNO
PAQT 221653Z AUTO 07009KT 10SM CLR M29/M32 A3028 RMK AO2 SLP254 T12941322 TSNO
PAQT 221553Z AUTO 06008KT 10SM CLR M29/M32 A3028 RMK AO2 SLP255 T12891317 TSNO
PAQT 221453Z AUTO 07007KT 10SM CLR M29/M32 A3028 RMK AO2 SLP254 T12941322 58002 TSNO
PAQT 221353Z AUTO 06007KT 10SM CLR M29/M32 A3029 RMK AO2 SLP257 T12891317 TSNO
PAQT 221336Z AUTO 06006KT 10SM SCT002 M29/M31 A3029 RMK AO2 T12891311 TSNO
PAQT 221312Z AUTO 06007KT 10SM OVC004 M27/M30 A3029 RMK AO2 CIG 002V005 T12721300 TSNO
PAQT 221253Z AUTO 06007KT 10SM OVC005 M27/M29 A3029 RMK AO2 SLP257 T12671294 TSNO
PAQT 221230Z AUTO 07007KT 10SM BKN006 OVC022 M27/M29 A3029 RMK AO2 T12671289 TSNO
PAQT 221215Z AUTO 07006KT 10SM FEW007 BKN022 M27/M29 A3028 RMK AO2 T12671294 TSNO
PAQT 221153Z AUTO 07005KT 10SM CLR M27/M29 A3028 RMK AO2 SLP256 T12721294 11194 21272 52008 TSNO
PAQT 221138Z AUTO 05007KT 10SM SCT005 M27/M29 A3028 RMK AO2 T12671294 TSNO
PAQT 221053Z AUTO 06006KT 10SM OVC005 M27/M29 A3028 RMK AO2 SLP253 T12671289 TSNO
PAQT 220953Z AUTO 05007KT 10SM BKN008 M26/M28 A3027 RMK AO2 SLP251 T12611283 TSNO
PAQT 220853Z AUTO 06007KT 10SM OVC008 M25/M27 A3026 RMK AO2 SLP248 T12501272 411671272 51012 TSNO
PAQT 220753Z AUTO 06008KT 10SM OVC007 M23/M25 A3025 RMK AO2 SLP244 T12281250 TSNO
PAQT 220653Z AUTO 06008KT 10SM OVC008 M21/M23 A3024 RMK AO2 SLP241 T12111233 TSNO
PAQT 220553Z AUTO 05009KT 10SM OVC009 M19/M22 A3022 RMK AO2 UPE00 SLP236 P0000 60000 T11941217 11167 21200 51016 TSNO
PAQT 220538Z AUTO 05008KT 10SM BKN009 OVC013 M19/M22 A3022 RMK AO2 UPE00 P0000 T11941217 TSNO
PAQT 220453Z AUTO 04009KT 10SM UP OVC013 M18/M20 A3021 RMK AO2 SLP233 P0000 T11781200 TSNO
PAQT 220411Z AUTO 04008KT 10SM UP BKN012 OVC019 M17/M19 A3020 RMK AO2 P0000 T11721194 TSNO
PAQT 220400Z AUTO 04008KT 10SM UP SCT012 OVC018 M17/M19 A3020 RMK AO2 P0000 T11671189 TSNO
PAQT 220353Z AUTO 04008KT 10SM UP BKN011 OVC018 M17/M19 A3019 RMK AO2 SLP226 P0000 T11671189 TSNO
PAQT 220307Z AUTO 04008KT 9SM UP BKN010 OVC017 M17/M19 A3018 RMK AO2 P0000 T11671189 TSNO
PAQT 220300Z AUTO 04009KT 10SM UP SCT010 OVC017 M17/M18 A3018 RMK AO2 P0000 T11671183 TSNO
PAQT 220253Z AUTO 04007KT 10SM UP BKN012 OVC017 M17/M18 A3018 RMK AO2 UPB0157 SLP220 P0000 60000 T11671183 51012 TSNO
PAQT 220203Z AUTO 01005KT 9SM UP SCT009 OVC019 M17/M19 A3017 RMK AO2 UPB0157 P0000 T11721194 TSNO
PAQT 220153Z AUTO 36004KT 8SM BKN009 OVC019 M18/M21 A3017 RMK AO2 SLP216 T11831206 TSNO
PAQT 220126Z AUTO 32004KT 8SM BKN009 OVC018 M19/M21 A3016 RMK AO2 T11891211 TSNO
PAQT 220111Z AUTO 32003KT 7SM SCT008 OVC018 M19/M21 A3016 RMK AO2 T11941211 TSNO
PAQT 220053Z AUTO 30003KT 6SM BR OVC007 M19/M21 A3016 RMK AO2 UPE10 SLP213 P0000 T11941211 TSNO
PAQT 220015Z AUTO 00000KT 3SM BR OVC008 M19/M21 A3015 RMK AO2 UPE10 P0000 T11941211 TSNO
PAQT 220008Z AUTO 00000KT 1 1/2SM UP BR OVC008 M19/M21 A3015 RMK AO2 P0000 T11941211 TSNO
PAQT 212353Z AUTO 26003KT 3/4SM UP BR VV007 M20/M21 A3014 RMK AO2 SLP209 P0000 60000 I1000 I6001 T12001211 11200 21261 51012 TSNO
PAQT 212308Z AUTO 25003KT 1/4SM UP FZFG VV005 M21/M22 A3014 RMK AO2 P0000 I1000 T12061217 TSNO
PAQT 212253Z AUTO 26003KT 1/2SM UP FZFG OVC003 M21/M22 A3014 RMK AO2 UPB09E10B20E32B52SNB08E09B10E20B32E52 SLP206 P0000 T12061217 TSNO
PAQT 212222Z AUTO 00000KT 1/4SM UP FZFG VV004 M21/M22 A3013 RMK AO2 UPB09E10B20SNB08E09B10E20 P0000 T12111222 TSNO
PAQT 212212Z AUTO 29003KT 1/4SM -SN FZFG VV005 M22/M22 A3013 RMK AO2 UPB09E10SNB08E09B10 P0000 T12171222 TSNO
PAQT 212153Z AUTO 00000KT 1/4SM FZFG VV004 M22/M22 A3012 RMK AO2 SLP202 I1000 T12221222 TSNO
PAQT 212053Z AUTO 18005KT 1/4SM FZFG VV003 M23/M24 A3011 RMK AO2 SLP196 I1000 I3001 T12331239 53012 TSNO
PAQT 211953Z AUTO 00000KT 1/4SM FZFG OVC003 M23/M23 A3009 RMK AO2 SLP191 T12331233 TSNO